^^
Station Historical Data
Daily Summary for April 22, 2017 Units:  English    Metric   Both
« Previous Day
Next Day »
Daily Weekly Monthly Yearly Custom
  High: Low: Average:
Temperature: 54.6 °F 45.7 °F 52.7 °F
Dew Point: 52.5 °F 36.4 °F 45.4 °F
Humidity: 94 % 63 % 77 %
Wind Speed: 8.7 mph 0.0 mph 2.6 mph
Wind Gust: 15.0 mph - -
Wind:- - SSE
Pressure: 30.06 in 29.90 in -
Precipitation: 0.03 in    
Historical Graphs
 
 
Tabular Data for April 22, 2017
Time Temperature Dew Point Pressure Wind Wind Speed Wind Gust Humidity Rainfall Rate (Hourly) solar Conditions
00:03 54.5 °F 52.5 °F 29.92 in NNE 3.2 mph 4.0 mph 93 % 0.00 in 0.0 W/m2 RA
00:08 54.4 °F 52.4 °F 29.92 in NNE 2.4 mph 3.5 mph 93 % 0.00 in 0.0 W/m2 RA
00:13 54.4 °F 52.4 °F 29.92 in NNE 1.2 mph 2.3 mph 93 % 0.00 in 0.0 W/m2 CLR
00:18 54.4 °F 52.4 °F 29.93 in NNE 1.3 mph 2.3 mph 93 % 0.00 in 0.0 W/m2 CLR
00:23 54.3 °F 52.3 °F 29.92 in Calm     93 % 0.00 in 0.0 W/m2 CLR
00:28 54.2 °F 52.2 °F 29.92 in NNE 2.1 mph 3.5 mph 93 % 0.00 in 0.0 W/m2 CLR
00:29 54.3 °F 52.3 °F 29.92 in NNE 1.5 mph 3.5 mph 93 % 0.00 in 0.0 W/m2 CLR
00:34 54.2 °F 52.2 °F 29.93 in NNE 1.2 mph 2.3 mph 93 % 0.00 in 0.0 W/m2 CLR
00:39 54.2 °F 52.2 °F 29.93 in NNE 2.6 mph 4.0 mph 93 % 0.00 in 0.0 W/m2 CLR
00:44 54.2 °F 52.2 °F 29.93 in NNE 2.4 mph 3.5 mph 93 % 0.00 in 0.0 W/m2 CLR
00:49 54.2 °F 52.2 °F 29.93 in NE 4.0 mph 5.8 mph 93 % 0.00 in 0.0 W/m2 CLR
00:54 54.1 °F 52.1 °F 29.93 in Calm   1.2 mph 93 % 0.00 in 0.0 W/m2 CLR
00:59 54.1 °F 52.1 °F 29.93 in Calm     93 % 0.00 in 0.0 W/m2 CLR
01:04 54.0 °F 52.0 °F 29.94 in Calm     93 % 0.00 in 0.0 W/m2 CLR
01:14 53.9 °F 51.9 °F 29.93 in NNE 0.3 mph 3.0 mph 93 % 0.00 in 0.0 W/m2 CLR
01:24 54.0 °F 52.3 °F 29.93 in NNE 1.5 mph 3.5 mph 94 % 0.00 in 0.0 W/m2 CLR
01:29 53.9 °F 51.9 °F 29.93 in Calm     93 % 0.00 in 0.0 W/m2 CLR
01:34 54.0 °F 52.3 °F 29.94 in Calm     94 % 0.00 in 0.0 W/m2 CLR
01:39 54.0 °F 52.3 °F 29.93 in Calm     94 % 0.00 in 0.0 W/m2 CLR
01:44 54.0 °F 52.3 °F 29.93 in Calm   1.2 mph 94 % 0.00 in 0.0 W/m2 CLR
01:49 54.0 °F 52.3 °F 29.93 in Calm   1.2 mph 94 % 0.00 in 0.0 W/m2 CLR
01:54 53.9 °F 52.2 °F 29.93 in Calm     94 % 0.00 in 0.0 W/m2 CLR
01:59 53.9 °F 52.2 °F 29.93 in Calm     94 % 0.00 in 0.0 W/m2 CLR
02:04 54.0 °F 52.3 °F 29.93 in Calm     94 % 0.00 in 0.0 W/m2 CLR
02:09 54.0 °F 52.3 °F 29.93 in Calm     94 % 0.00 in 0.0 W/m2 CLR
02:14 54.2 °F 52.5 °F 29.93 in Calm     94 % 0.00 in 0.0 W/m2 CLR
02:19 54.0 °F 52.3 °F 29.93 in Calm     94 % 0.00 in 0.0 W/m2 CLR
02:24 53.9 °F 52.2 °F 29.92 in NNE 2.1 mph 3.0 mph 94 % 0.00 in 0.0 W/m2 CLR
02:29 54.0 °F 52.3 °F 29.92 in NNE 3.1 mph 3.5 mph 94 % 0.00 in 0.0 W/m2 CLR
02:35 53.9 °F 52.2 °F 29.92 in NNE 1.5 mph 2.3 mph 94 % 0.00 in 0.0 W/m2 CLR
02:40 53.9 °F 52.2 °F 29.92 in NNE 3.0 mph 4.0 mph 94 % 0.00 in 0.0 W/m2 CLR
02:50 53.9 °F 52.2 °F 29.91 in NNE 2.9 mph 3.5 mph 94 % 0.00 in 0.0 W/m2 CLR
02:55 53.9 °F 52.2 °F 29.91 in NNE 4.2 mph 4.6 mph 94 % 0.00 in 0.0 W/m2 CLR
03:00 53.9 °F 52.2 °F 29.92 in NNE 3.3 mph 3.5 mph 94 % 0.00 in 0.0 W/m2 CLR
03:05 53.9 °F 52.2 °F 29.91 in NNE 2.2 mph 3.5 mph 94 % 0.00 in 0.0 W/m2 CLR
03:10 53.8 °F 52.1 °F 29.91 in NNE 3.1 mph 4.6 mph 94 % 0.00 in 0.0 W/m2 CLR
03:15 53.8 °F 52.1 °F 29.91 in NNE 3.1 mph 4.0 mph 94 % 0.00 in 0.0 W/m2 CLR
03:20 53.7 °F 52.0 °F 29.91 in NNE 4.4 mph 6.9 mph 94 % 0.00 in 0.0 W/m2 CLR
03:25 53.7 °F 52.0 °F 29.91 in North 3.8 mph 5.0 mph 94 % 0.00 in 0.0 W/m2 CLR
03:35 53.8 °F 52.1 °F 29.91 in NNE 4.2 mph 4.6 mph 94 % 0.00 in 0.0 W/m2 CLR
03:40 53.8 °F 52.1 °F 29.92 in NNE 2.2 mph 3.5 mph 94 % 0.00 in 0.0 W/m2 CLR
03:45 53.8 °F 52.1 °F 29.92 in NNE 2.0 mph 3.5 mph 94 % 0.00 in 0.0 W/m2 CLR
03:50 53.7 °F 52.0 °F 29.91 in Calm     94 % 0.00 in 0.0 W/m2 CLR
03:55 53.7 °F 52.0 °F 29.91 in Calm     94 % 0.00 in 0.0 W/m2 CLR
04:00 53.7 °F 52.0 °F 29.91 in NNE 0.9 mph 2.3 mph 94 % 0.00 in 0.0 W/m2 CLR
04:05 53.8 °F 52.1 °F 29.91 in NNE 2.3 mph 4.0 mph 94 % 0.00 in 0.0 W/m2 CLR
04:10 53.7 °F 52.0 °F 29.90 in NNE 3.8 mph 4.0 mph 94 % 0.00 in 0.0 W/m2 CLR
04:15 53.7 °F 52.0 °F 29.90 in NNE 3.1 mph 3.5 mph 94 % 0.00 in 0.0 W/m2 CLR
04:25 53.6 °F 51.6 °F 29.91 in North 7.2 mph 11.5 mph 93 % 0.00 in 0.0 W/m2 CLR
04:30 53.1 °F 51.1 °F 29.92 in North 2.9 mph 6.9 mph 93 % 0.00 in 0.0 W/m2 CLR
04:35 53.0 °F 51.0 °F 29.92 in NNE 4.0 mph 8.1 mph 93 % 0.00 in 0.0 W/m2 CLR
04:40 52.8 °F 50.8 °F 29.92 in North 4.9 mph 5.8 mph 93 % 0.00 in 0.0 W/m2 CLR
04:45 52.8 °F 50.8 °F 29.92 in North 3.2 mph 5.0 mph 93 % 0.00 in 0.0 W/m2 CLR
04:50 52.7 °F 50.7 °F 29.92 in NNE 3.0 mph 6.9 mph 93 % 0.00 in 0.0 W/m2 CLR
04:55 52.6 °F 50.6 °F 29.92 in NNE 3.9 mph 5.8 mph 93 % 0.00 in 0.0 W/m2 CLR
05:00 52.5 °F 50.5 °F 29.91 in NNE 4.0 mph 5.8 mph 93 % 0.00 in 0.0 W/m2 CLR
05:05 52.5 °F 50.2 °F 29.91 in NNE 4.6 mph 5.0 mph 92 % 0.00 in 0.0 W/m2 CLR
05:10 52.6 °F 50.3 °F 29.91 in NNE 2.0 mph 3.5 mph 92 % 0.00 in 0.0 W/m2 CLR
05:15 52.6 °F 50.3 °F 29.91 in North 3.1 mph 3.5 mph 92 % 0.00 in 0.0 W/m2 CLR
05:20 52.6 °F 50.0 °F 29.91 in North 2.6 mph 4.6 mph 91 % 0.00 in 0.0 W/m2 CLR
05:25 52.6 °F 50.0 °F 29.91 in North 4.3 mph 4.3 mph 91 % 0.00 in 0.0 W/m2 CLR
05:30 52.6 °F 49.8 °F 29.91 in North 3.6 mph 3.6 mph 90 % 0.00 in 0.0 W/m2 CLR
05:35 52.7 °F 49.5 °F 29.91 in North 2.7 mph 4.0 mph 89 % 0.00 in 0.0 W/m2 CLR
05:40 52.6 °F 49.1 °F 29.91 in NNE 4.3 mph 8.1 mph 88 % 0.00 in 0.0 W/m2 CLR
05:45 52.7 °F 49.2 °F 29.91 in NNE 3.9 mph 5.0 mph 88 % 0.00 in 0.0 W/m2 CLR
05:50 52.7 °F 48.9 °F 29.91 in NNE 2.8 mph 3.5 mph 87 % 0.00 in 0.0 W/m2 CLR
05:55 52.8 °F 48.7 °F 29.91 in NNE 3.4 mph 3.5 mph 86 % 0.00 in 0.0 W/m2 CLR
06:00 52.8 °F 48.4 °F 29.91 in NNE 3.0 mph 3.5 mph 85 % 0.00 in 0.0 W/m2 CLR
06:05 52.8 °F 48.4 °F 29.91 in NNE 3.5 mph 4.6 mph 85 % 0.00 in 0.0 W/m2 CLR
06:10 52.9 °F 48.2 °F 29.92 in NNE 2.7 mph 3.5 mph 84 % 0.00 in 0.0 W/m2 CLR
06:15 52.9 °F 47.9 °F 29.92 in NNE 2.0 mph 2.3 mph 83 % 0.00 in 0.0 W/m2 CLR
06:20 52.9 °F 47.9 °F 29.92 in NNE 2.7 mph 3.5 mph 83 % 0.00 in 0.0 W/m2 CLR
06:25 53.0 °F 47.7 °F 29.92 in NNE 1.8 mph 3.5 mph 82 % 0.00 in 0.0 W/m2 CLR
06:30 52.9 °F 47.6 °F 29.91 in NNE 0.1 mph 3.5 mph 82 % 0.00 in 5.0 W/m2 CLR
06:35 52.9 °F 47.6 °F 29.92 in NNE 2.0 mph 3.0 mph 82 % 0.00 in 7.0 W/m2 CLR
06:40 52.9 °F 47.6 °F 29.92 in NNE 1.6 mph 2.3 mph 82 % 0.00 in 9.0 W/m2 CLR
06:45 52.9 °F 47.6 °F 29.92 in NNE 0.5 mph 2.3 mph 82 % 0.00 in 21.0 W/m2 CLR
06:50 53.0 °F 47.3 °F 29.92 in NNW 1.0 mph 3.5 mph 81 % 0.00 in 33.0 W/m2 CLR
06:55 53.1 °F 47.7 °F 29.93 in Calm     82 % 0.00 in 35.0 W/m2 CLR
07:01 53.0 °F 47.3 °F 29.93 in NNW 0.1 mph 1.2 mph 81 % 0.00 in 44.0 W/m2 SCT
07:06 52.9 °F 46.9 °F 29.93 in NNE 2.9 mph 4.0 mph 80 % 0.00 in 56.0 W/m2 FEW
07:11 52.9 °F 46.2 °F 29.93 in NNE 2.4 mph 3.5 mph 78 % 0.00 in 56.0 W/m2 SCT
07:12 53.0 °F 46.3 °F 29.93 in NNE 2.8 mph 3.5 mph 78 % 0.00 in 56.0 W/m2 SCT
07:17 53.0 °F 46.0 °F 29.93 in NNE 3.6 mph 4.6 mph 77 % 0.00 in 51.0 W/m2 SCT
07:22 53.1 °F 45.7 °F 29.93 in NNE 3.2 mph 4.0 mph 76 % 0.00 in 63.0 W/m2 SCT
07:27 53.2 °F 45.8 °F 29.93 in NNE 2.1 mph 3.5 mph 76 % 0.00 in 86.0 W/m2 SCT
07:32 53.3 °F 45.6 °F 29.94 in North 1.1 mph 3.5 mph 75 % 0.00 in 79.0 W/m2 SCT
07:37 53.4 °F 45.3 °F 29.94 in North 1.5 mph 3.5 mph 74 % 0.00 in 109.0 W/m2 SCT
07:42 53.6 °F 45.5 °F 29.94 in North 0.4 mph 2.3 mph 74 % 0.00 in 90.0 W/m2 SCT
07:47 53.5 °F 45.1 °F 29.94 in Calm     73 % 0.00 in 74.0 W/m2 BKN
07:52 53.4 °F 45.0 °F 29.94 in NNE 2.0 mph 4.0 mph 73 % 0.00 in 58.0 W/m2 BKN
07:57 53.4 °F 45.0 °F 29.94 in NNE 2.1 mph 3.5 mph 73 % 0.00 in 47.0 W/m2 OVC
08:02 53.5 °F 45.1 °F 29.94 in NNW 2.7 mph 4.0 mph 73 % 0.00 in 39.0 W/m2 OVC
08:07 53.5 °F 44.3 °F 29.95 in North 2.8 mph 4.6 mph 71 % 0.00 in 40.0 W/m2 OVC
08:12 53.5 °F 44.3 °F 29.95 in NNW 1.1 mph 4.0 mph 71 % 0.00 in 47.0 W/m2 OVC
08:17 53.5 °F 44.3 °F 29.95 in NNW 2.7 mph 3.5 mph 71 % 0.00 in 58.0 W/m2 OVC
08:22 53.6 °F 44.8 °F 29.95 in NNW 1.1 mph 3.5 mph 72 % 0.00 in 72.0 W/m2 OVC
08:27 53.7 °F 44.9 °F 29.95 in NNW 2.5 mph 3.5 mph 72 % 0.00 in 109.0 W/m2 BKN
08:32 53.7 °F 44.9 °F 29.95 in NNW 0.5 mph 3.0 mph 72 % 0.00 in 156.0 W/m2 BKN
08:37 53.9 °F 44.7 °F 29.95 in NNW 1.4 mph 3.5 mph 71 % 0.00 in 127.0 W/m2 BKN
08:42 53.9 °F 44.3 °F 29.95 in NNW 3.4 mph 4.0 mph 70 % 0.00 in 93.0 W/m2 OVC
08:47 53.8 °F 43.9 °F 29.95 in NNE 4.7 mph 5.8 mph 69 % 0.00 in 104.0 W/m2 BKN
08:52 53.7 °F 44.1 °F 29.95 in North 3.8 mph 6.9 mph 70 % 0.00 in 130.0 W/m2 BKN
08:57 53.6 °F 44.8 °F 29.95 in NNE 2.7 mph 3.5 mph 72 % 0.00 in 151.0 W/m2 BKN
09:02 53.7 °F 45.2 °F 29.95 in NNE 4.7 mph 5.8 mph 73 % 0.00 in 197.0 W/m2 BKN
09:07 53.6 °F 44.8 °F 29.95 in North 4.1 mph 5.0 mph 72 % 0.00 in 148.0 W/m2 BKN
09:12 53.6 °F 44.8 °F 29.95 in NNE 5.1 mph 9.2 mph 72 % 0.00 in 135.0 W/m2 BKN
09:17 53.4 °F 44.6 °F 29.95 in NNE 5.5 mph 8.1 mph 72 % 0.00 in 84.0 W/m2 OVC
09:22 53.3 °F 44.5 °F 29.95 in North 3.2 mph 5.8 mph 72 % 0.00 in 111.0 W/m2 OVC
09:27 53.3 °F 44.5 °F 29.95 in NNE 5.0 mph 5.8 mph 72 % 0.00 in 116.0 W/m2 OVC
09:32 53.4 °F 44.6 °F 29.96 in NNE 4.0 mph 4.0 mph 72 % 0.00 in 125.0 W/m2 OVC
09:37 53.4 °F 44.2 °F 29.96 in North 2.9 mph 5.8 mph 71 % 0.00 in 127.0 W/m2 OVC
09:42 53.7 °F 44.5 °F 29.96 in NNW 3.9 mph 4.6 mph 71 % 0.00 in 186.0 W/m2 BKN
09:47 53.7 °F 44.1 °F 29.96 in NNE 4.2 mph 4.6 mph 70 % 0.00 in 185.0 W/m2 BKN
09:52 53.8 °F 44.6 °F 29.96 in North 3.8 mph 6.0 mph 71 % 0.00 in 169.0 W/m2 BKN
09:57 53.7 °F 44.1 °F 29.96 in NNW 3.4 mph 4.0 mph 70 % 0.00 in 174.0 W/m2 BKN
10:02 53.7 °F 44.9 °F 29.96 in NNW 3.8 mph 8.1 mph 72 % 0.00 in 202.0 W/m2 BKN
10:07 53.5 °F 45.1 °F 29.97 in NNW 3.1 mph 6.9 mph 73 % 0.01 in 186.0 W/m2 RA
10:12 53.5 °F 45.4 °F 29.97 in Calm   1.2 mph 74 % 0.01 in 156.0 W/m2 RA
10:17 53.5 °F 45.4 °F 29.97 in North 3.0 mph 4.0 mph 74 % 0.01 in 142.0 W/m2 OVC
10:22 53.5 °F 45.8 °F 29.97 in NNW 3.3 mph 5.8 mph 75 % 0.01 in 137.0 W/m2 OVC
10:23 53.5 °F 45.8 °F 29.97 in NNW 3.4 mph 4.6 mph 75 % 0.01 in 137.0 W/m2 OVC
10:28 53.5 °F 45.4 °F 29.97 in NNW 3.8 mph 4.6 mph 74 % 0.01 in 141.0 W/m2 OVC
10:33 53.6 °F 45.9 °F 29.97 in NNE 4.2 mph 5.0 mph 75 % 0.01 in 155.0 W/m2 OVC
10:38 53.5 °F 45.4 °F 29.98 in NNW 3.0 mph 4.6 mph 74 % 0.01 in 120.0 W/m2 OVC
10:43 53.3 °F 45.2 °F 29.98 in NNE 2.7 mph 4.6 mph 74 % 0.01 in 118.0 W/m2 OVC
10:48 53.5 °F 45.4 °F 29.97 in North 4.0 mph 8.0 mph 74 % 0.01 in 130.0 W/m2 OVC
10:53 53.3 °F 45.2 °F 29.97 in NNE 4.2 mph 5.8 mph 74 % 0.01 in 130.0 W/m2 OVC
10:58 53.2 °F 45.1 °F 29.97 in NNE 3.8 mph 6.9 mph 74 % 0.01 in 171.0 W/m2 OVC
11:04 53.2 °F 45.5 °F 29.97 in NNE 3.7 mph 5.0 mph 75 % 0.01 in 163.0 W/m2 OVC
11:09 53.2 °F 45.8 °F 29.97 in NNW 2.8 mph 5.0 mph 76 % 0.00 in 174.0 W/m2 OVC
11:14 53.2 °F 45.8 °F 29.97 in NNW 3.3 mph 8.1 mph 76 % 0.00 in 139.0 W/m2 OVC
11:19 53.0 °F 45.3 °F 29.97 in NNE 2.2 mph 5.8 mph 75 % 0.00 in 107.0 W/m2 OVC
11:23 53.2 °F 45.8 °F 29.97 in North 2.6 mph 5.0 mph 76 % 0.00 in 146.0 W/m2 OVC
11:29 53.2 °F 45.8 °F 29.97 in NNE 4.3 mph 5.8 mph 76 % 0.00 in 151.0 W/m2 OVC
11:34 53.0 °F 45.3 °F 29.97 in NNE 1.7 mph 4.6 mph 75 % 0.00 in 192.0 W/m2 OVC
11:39 53.1 °F 45.7 °F 29.96 in NNE 1.3 mph 4.0 mph 76 % 0.00 in 174.0 W/m2 OVC
11:44 53.1 °F 45.7 °F 29.95 in NNE 2.1 mph 3.5 mph 76 % 0.00 in 213.0 W/m2 BKN
11:49 53.3 °F 45.9 °F 29.95 in NNE 3.4 mph 4.0 mph 76 % 0.00 in 315.0 W/m2 BKN
11:54 53.6 °F 46.6 °F 29.96 in North 2.4 mph 4.6 mph 77 % 0.00 in 229.0 W/m2 BKN
11:59 53.5 °F 46.1 °F 29.95 in North 2.2 mph 3.5 mph 76 % 0.00 in 202.0 W/m2 OVC
12:04 53.5 °F 46.1 °F 29.95 in NNE 4.5 mph 5.0 mph 76 % 0.00 in 207.0 W/m2 OVC
12:09 53.5 °F 46.1 °F 29.96 in NNE 0.8 mph 3.0 mph 76 % 0.00 in 213.0 W/m2 OVC
12:14 53.6 °F 45.9 °F 29.96 in North 2.8 mph 4.6 mph 75 % 0.00 in 230.0 W/m2 BKN
12:19 54.0 °F 46.3 °F 29.96 in NNW 1.7 mph 2.3 mph 75 % 0.00 in 220.0 W/m2 OVC
12:22 54.1 °F 46.0 °F 29.95 in NNE 3.9 mph 4.0 mph 74 % 0.00 in 237.0 W/m2 BKN
12:27 54.0 °F 45.9 °F 29.95 in NNE 4.2 mph 5.8 mph 74 % 0.00 in 206.0 W/m2 OVC
12:32 53.7 °F 45.6 °F 29.95 in NNE 1.6 mph 2.3 mph 74 % 0.00 in 183.0 W/m2 OVC
12:37 54.0 °F 45.9 °F 29.95 in NNW 2.7 mph 3.5 mph 74 % 0.00 in 218.0 W/m2 OVC
12:43 54.4 °F 46.3 °F 29.95 in NNW 2.8 mph 3.5 mph 74 % 0.00 in 186.0 W/m2 OVC
12:48 54.6 °F 46.5 °F 29.95 in NNW 1.1 mph 3.5 mph 74 % 0.00 in 199.0 W/m2 OVC
12:53 54.4 °F 45.9 °F 29.95 in North 0.1 mph 3.5 mph 73 % 0.00 in 121.0 W/m2 OVC
12:58 54.2 °F 45.7 °F 29.95 in North 2.3 mph 3.5 mph 73 % 0.00 in 118.0 W/m2 OVC
13:03 54.2 °F 45.7 °F 29.95 in NNE 1.9 mph 3.5 mph 73 % 0.00 in 121.0 W/m2 OVC
13:08 54.2 °F 46.1 °F 29.95 in NNE 2.3 mph 4.0 mph 74 % 0.00 in 114.0 W/m2 OVC
13:13 54.2 °F 46.8 °F 29.95 in NNE 3.9 mph 5.8 mph 76 % 0.00 in 130.0 W/m2 OVC
13:18 53.7 °F 46.3 °F 29.95 in NNE 1.7 mph 3.5 mph 76 % 0.00 in 174.0 W/m2 OVC
13:23 53.3 °F 46.6 °F 29.95 in Calm   2.3 mph 78 % 0.01 in 156.0 W/m2 RA
13:28 53.3 °F 47.0 °F 29.95 in Calm     79 % 0.01 in 148.0 W/m2 RA
13:33 53.3 °F 47.0 °F 29.96 in NW 4.0 mph 5.8 mph 79 % 0.01 in 142.0 W/m2 OVC
13:38 53.1 °F 46.8 °F 29.96 in NNW 2.3 mph 3.5 mph 79 % 0.01 in 174.0 W/m2 OVC
13:43 53.2 °F 46.9 °F 29.96 in NW 3.2 mph 5.8 mph 79 % 0.01 in 174.0 W/m2 OVC
13:48 53.5 °F 47.1 °F 29.96 in NW 2.5 mph 3.5 mph 79 % 0.01 in 186.0 W/m2 OVC
13:53 53.7 °F 46.7 °F 29.96 in NW 3.6 mph 4.6 mph 77 % 0.01 in 160.0 W/m2 OVC
13:58 53.7 °F 46.3 °F 29.96 in NNW 3.5 mph 5.0 mph 76 % 0.01 in 128.0 W/m2 OVC
14:03 53.7 °F 46.0 °F 29.96 in NW 3.3 mph 5.0 mph 75 % 0.01 in 104.0 W/m2 OVC
14:08 53.8 °F 46.1 °F 29.96 in NW 2.4 mph 3.5 mph 75 % 0.01 in 105.0 W/m2 OVC
14:13 53.8 °F 46.1 °F 29.96 in North 3.5 mph 8.1 mph 75 % 0.01 in 104.0 W/m2 OVC
14:18 53.5 °F 45.8 °F 29.96 in NNW 3.9 mph 6.9 mph 75 % 0.02 in 114.0 W/m2 RA
14:23 53.3 °F 45.9 °F 29.96 in WNW 3.8 mph 5.8 mph 76 % 0.01 in 97.0 W/m2 RA
14:28 53.3 °F 46.3 °F 29.96 in NNW 4.3 mph 8.0 mph 77 % 0.01 in 134.0 W/m2 OVC
14:33 53.3 °F 46.3 °F 29.96 in NNW 4.7 mph 9.2 mph 77 % 0.01 in 141.0 W/m2 OVC
14:38 53.4 °F 46.7 °F 29.96 in NW 7.8 mph 11.5 mph 78 % 0.01 in 146.0 W/m2 OVC
14:43 53.0 °F 46.0 °F 29.97 in NNW 6.1 mph 10.4 mph 77 % 0.01 in 137.0 W/m2 OVC
14:48 52.9 °F 46.2 °F 29.97 in North 2.5 mph 4.0 mph 78 % 0.01 in 132.0 W/m2 OVC
14:53 53.1 °F 46.1 °F 29.97 in NNW 3.0 mph 5.8 mph 77 % 0.01 in 125.0 W/m2 OVC
14:58 53.1 °F 46.1 °F 29.97 in NW 4.9 mph 6.9 mph 77 % 0.01 in 130.0 W/m2 OVC
15:03 53.1 °F 46.1 °F 29.97 in NNW 3.6 mph 4.6 mph 77 % 0.01 in 149.0 W/m2 OVC
15:08 53.3 °F 46.6 °F 29.97 in NNW 4.0 mph 5.0 mph 78 % 0.01 in 142.0 W/m2 OVC
15:13 53.3 °F 46.6 °F 29.97 in NNW 2.8 mph 3.5 mph 78 % 0.01 in 160.0 W/m2 OVC
15:18 53.5 °F 47.1 °F 29.97 in North 3.6 mph 8.0 mph 79 % 0.00 in 162.0 W/m2 OVC
15:23 53.4 °F 46.4 °F 29.97 in NNW 4.2 mph 9.2 mph 77 % 0.00 in 183.0 W/m2 OVC
15:28 53.3 °F 46.6 °F 29.97 in NNW 2.8 mph 8.1 mph 78 % 0.00 in 146.0 W/m2 OVC
15:33 53.3 °F 46.6 °F 29.97 in North 4.9 mph 8.1 mph 78 % 0.00 in 167.0 W/m2 OVC
15:38 53.2 °F 45.8 °F 29.97 in North 5.8 mph 9.2 mph 76 % 0.00 in 141.0 W/m2 OVC
15:43 53.2 °F 46.2 °F 29.97 in NNW 3.2 mph 8.1 mph 77 % 0.00 in 139.0 W/m2 OVC
15:48 53.2 °F 46.5 °F 29.97 in North 2.5 mph 4.0 mph 78 % 0.00 in 139.0 W/m2 OVC
15:53 53.1 °F 46.1 °F 29.97 in North 1.4 mph 3.5 mph 77 % 0.00 in 121.0 W/m2 OVC
15:58 53.0 °F 46.0 °F 29.97 in NNW 4.5 mph 8.1 mph 77 % 0.00 in 114.0 W/m2 OVC
16:03 53.0 °F 46.0 °F 29.97 in NW 1.1 mph 3.5 mph 77 % 0.00 in 128.0 W/m2 OVC
16:08 53.3 °F 45.9 °F 29.97 in NW 2.2 mph 3.5 mph 76 % 0.00 in 123.0 W/m2 OVC
16:13 53.3 °F 45.9 °F 29.97 in NW 3.7 mph 4.6 mph 76 % 0.00 in 123.0 W/m2 OVC
16:18 53.4 °F 46.0 °F 29.97 in NNW 1.1 mph 5.8 mph 76 % 0.00 in 134.0 W/m2 OVC
16:23 53.4 °F 46.0 °F 29.97 in NW 3.5 mph 8.1 mph 76 % 0.00 in 132.0 W/m2 OVC
16:28 53.2 °F 45.8 °F 29.97 in NW 1.6 mph 5.8 mph 76 % 0.00 in 156.0 W/m2 BKN
16:33 53.3 °F 45.9 °F 29.98 in WNW 4.5 mph 8.1 mph 76 % 0.00 in 120.0 W/m2 OVC
16:38 53.5 °F 46.1 °F 29.98 in NW 4.7 mph 8.1 mph 76 % 0.00 in 132.0 W/m2 OVC
16:48 53.5 °F 45.4 °F 29.98 in NW 3.3 mph 5.8 mph 74 % 0.00 in 123.0 W/m2 OVC
16:53 53.6 °F 44.8 °F 29.98 in NNW 3.7 mph 6.0 mph 72 % 0.00 in 139.0 W/m2 BKN
16:58 53.7 °F 44.9 °F 29.98 in NNW 1.9 mph 4.6 mph 72 % 0.00 in 148.0 W/m2 BKN
17:03 53.8 °F 45.0 °F 29.98 in Calm   1.2 mph 72 % 0.00 in 111.0 W/m2 OVC
17:08 53.8 °F 45.0 °F 29.98 in NNW 3.0 mph 4.0 mph 72 % 0.00 in 135.0 W/m2 BKN
17:13 54.0 °F 44.8 °F 29.97 in NW 1.0 mph 3.5 mph 71 % 0.00 in 134.0 W/m2 BKN
17:18 54.2 °F 45.0 °F 29.97 in NW 4.9 mph 9.2 mph 71 % 0.00 in 109.0 W/m2 BKN
17:23 54.1 °F 44.5 °F 29.97 in NNW 2.8 mph 3.5 mph 70 % 0.00 in 105.0 W/m2 OVC
17:28 54.0 °F 44.4 °F 29.97 in North 0.4 mph 4.6 mph 70 % 0.00 in 90.0 W/m2 OVC
17:33 54.0 °F 44.1 °F 29.97 in NW 0.4 mph 4.6 mph 69 % 0.00 in 97.0 W/m2 OVC
17:38 54.0 °F 43.7 °F 29.97 in North 2.0 mph 5.8 mph 68 % 0.00 in 91.0 W/m2 OVC
17:43 53.9 °F 43.6 °F 29.96 in NW 4.1 mph 9.0 mph 68 % 0.00 in 104.0 W/m2 BKN
17:48 53.9 °F 43.2 °F 29.96 in Calm   4.6 mph 67 % 0.00 in 91.0 W/m2 BKN
17:53 54.0 °F 43.3 °F 29.97 in North 2.5 mph 4.0 mph 67 % 0.00 in 79.0 W/m2 BKN
17:58 53.8 °F 43.1 °F 29.97 in NNE 3.5 mph 6.9 mph 67 % 0.00 in 72.0 W/m2 OVC
18:03 53.8 °F 43.1 °F 29.97 in NNW 0.2 mph 3.0 mph 67 % 0.00 in 60.0 W/m2 OVC
18:09 53.8 °F 43.1 °F 29.98 in Calm   2.3 mph 67 % 0.00 in 56.0 W/m2 OVC
18:14 53.7 °F 42.6 °F 29.99 in NNW 1.9 mph 6.0 mph 66 % 0.00 in 56.0 W/m2 OVC
18:19 53.6 °F 42.5 °F 29.99 in NNW 3.4 mph 5.0 mph 66 % 0.00 in 49.0 W/m2 OVC
18:24 53.5 °F 41.6 °F 29.99 in NNW 3.1 mph 3.5 mph 64 % 0.00 in 53.0 W/m2 OVC
18:29 53.4 °F 41.5 °F 29.99 in NNW 3.2 mph 5.8 mph 64 % 0.00 in 58.0 W/m2 BKN
18:34 53.5 °F 42.0 °F 29.99 in NNW 3.3 mph 4.6 mph 65 % 0.00 in 63.0 W/m2 BKN
18:39 53.5 °F 42.0 °F 29.99 in NNW 1.6 mph 3.5 mph 65 % 0.00 in 70.0 W/m2 BKN
18:44 53.6 °F 41.7 °F 29.99 in NNW 1.4 mph 2.3 mph 64 % 0.00 in 49.0 W/m2 BKN
18:49 53.6 °F 42.1 °F 29.99 in NNW 2.0 mph 3.5 mph 65 % 0.00 in 46.0 W/m2 BKN
18:54 53.4 °F 41.9 °F 29.98 in NNE 2.3 mph 4.0 mph 65 % 0.00 in 42.0 W/m2 BKN
18:59 53.4 °F 42.3 °F 29.98 in NNE 1.5 mph 3.5 mph 66 % 0.00 in 37.0 W/m2 BKN
19:04 53.3 °F 42.2 °F 29.98 in NNE 1.1 mph 2.3 mph 66 % 0.00 in 25.0 W/m2 OVC
19:09 53.1 °F 42.0 °F 29.98 in NNE 1.7 mph 3.5 mph 66 % 0.00 in 16.0 W/m2 OVC
19:14 53.1 °F 42.0 °F 29.98 in NNW 0.4 mph 3.5 mph 66 % 0.00 in 12.0 W/m2 OVC
19:19 53.1 °F 42.0 °F 29.98 in North 0.1 mph 2.3 mph 66 % 0.00 in 9.0 W/m2 OVC
19:24 53.0 °F 41.5 °F 29.98 in NNE 1.1 mph 3.5 mph 65 % 0.00 in 7.0 W/m2 OVC
19:29 52.9 °F 41.8 °F 29.98 in Calm     66 % 0.00 in 5.0 W/m2 OVC
19:34 52.9 °F 41.4 °F 29.99 in NNE 5.4 mph 9.2 mph 65 % 0.00 in 0.0 W/m2 OVC
19:39 52.8 °F 41.4 °F 29.99 in North 4.5 mph 8.1 mph 65 % 0.00 in 0.0 W/m2 OVC
19:44 52.6 °F 41.2 °F 29.99 in NNE 6.9 mph 11.5 mph 65 % 0.00 in 0.0 W/m2 OVC
19:49 52.5 °F 41.1 °F 30.00 in North 2.1 mph 9.0 mph 65 % 0.00 in 0.0 W/m2 CLR
19:54 52.4 °F 41.0 °F 30.00 in NNE 2.3 mph 3.5 mph 65 % 0.00 in 0.0 W/m2 CLR
19:59 52.3 °F 40.9 °F 30.00 in NNW 4.5 mph 8.1 mph 65 % 0.00 in 0.0 W/m2 CLR
20:04 52.2 °F 40.8 °F 30.00 in NE 2.9 mph 4.6 mph 65 % 0.00 in 0.0 W/m2 CLR
20:05 52.1 °F 40.7 °F 30.00 in NNE 5.6 mph 10.4 mph 65 % 0.00 in 0.0 W/m2 CLR
20:10 52.0 °F 40.2 °F 30.00 in NNW 5.9 mph 10.4 mph 64 % 0.00 in 0.0 W/m2 CLR
20:15 51.8 °F 39.6 °F 30.00 in NNW 4.0 mph 9.0 mph 63 % 0.00 in 0.0 W/m2 CLR
20:20 51.7 °F 39.5 °F 30.00 in NNE 2.7 mph 8.1 mph 63 % 0.00 in 0.0 W/m2 CLR
20:25 51.6 °F 39.4 °F 30.00 in NNE 5.3 mph 15.0 mph 63 % 0.00 in 0.0 W/m2 CLR
20:30 51.5 °F 39.3 °F 30.01 in North 3.9 mph 10.4 mph 63 % 0.00 in 0.0 W/m2 CLR
20:35 51.5 °F 39.3 °F 30.01 in North 2.6 mph 4.6 mph 63 % 0.00 in 0.0 W/m2 CLR
20:40 51.4 °F 39.6 °F 30.02 in NNE 0.7 mph 2.3 mph 64 % 0.00 in 0.0 W/m2 CLR
20:45 51.3 °F 39.5 °F 30.02 in North 3.4 mph 11.5 mph 64 % 0.00 in 0.0 W/m2 CLR
20:50 51.2 °F 39.4 °F 30.02 in NNE 2.3 mph 6.9 mph 64 % 0.00 in 0.0 W/m2 CLR
20:55 51.0 °F 39.2 °F 30.02 in North 3.4 mph 5.8 mph 64 % 0.00 in 0.0 W/m2 CLR
21:00 50.9 °F 39.1 °F 30.03 in North 4.5 mph 9.2 mph 64 % 0.00 in 0.0 W/m2 CLR
21:05 50.8 °F 39.1 °F 30.03 in NNE 4.6 mph 9.2 mph 64 % 0.00 in 0.0 W/m2 CLR
21:10 50.8 °F 39.1 °F 30.03 in North 1.2 mph 10.4 mph 64 % 0.00 in 0.0 W/m2 CLR
21:15 50.7 °F 39.0 °F 30.03 in North 2.7 mph 5.0 mph 64 % 0.00 in 0.0 W/m2 CLR
21:20 50.5 °F 38.8 °F 30.02 in North 3.9 mph 8.1 mph 64 % 0.00 in 0.0 W/m2 CLR
21:25 50.5 °F 38.4 °F 30.03 in NNE 3.6 mph 5.8 mph 63 % 0.00 in 0.0 W/m2 CLR
21:26 50.4 °F 38.3 °F 30.02 in North 8.7 mph 15.0 mph 63 % 0.00 in 0.0 W/m2 CLR
21:31 50.3 °F 38.2 °F 30.03 in North 6.3 mph 9.2 mph 63 % 0.00 in 0.0 W/m2 CLR
21:36 50.2 °F 38.1 °F 30.03 in North 4.7 mph 11.5 mph 63 % 0.00 in 0.0 W/m2 CLR
21:42 50.0 °F 37.9 °F 30.03 in NNE 3.9 mph 4.6 mph 63 % 0.00 in 0.0 W/m2 CLR
21:47 49.8 °F 37.7 °F 30.03 in NE 5.7 mph 11.5 mph 63 % 0.00 in 0.0 W/m2 CLR
21:52 49.5 °F 37.4 °F 30.03 in North 2.6 mph 15.0 mph 63 % 0.00 in 0.0 W/m2 CLR
21:57 49.2 °F 37.1 °F 30.03 in NW 8.0 mph 11.5 mph 63 % 0.00 in 0.0 W/m2 CLR
22:02 48.9 °F 37.3 °F 30.03 in NNE 4.3 mph 12.7 mph 64 % 0.00 in 0.0 W/m2 CLR
22:07 48.8 °F 37.2 °F 30.04 in NW 4.0 mph 9.2 mph 64 % 0.00 in 0.0 W/m2 CLR
22:12 48.5 °F 37.3 °F 30.03 in North 1.5 mph 4.6 mph 65 % 0.00 in 0.0 W/m2 CLR
22:17 48.4 °F 37.2 °F 30.04 in NNW 1.3 mph 14.0 mph 65 % 0.00 in 0.0 W/m2 CLR
22:22 48.2 °F 37.0 °F 30.04 in NNW 2.4 mph 4.6 mph 65 % 0.00 in 0.0 W/m2 CLR
22:27 48.1 °F 36.9 °F 30.04 in North 1.9 mph 5.8 mph 65 % 0.00 in 0.0 W/m2 CLR
22:32 48.0 °F 36.8 °F 30.04 in NW 6.2 mph 10.4 mph 65 % 0.00 in 0.0 W/m2 CLR
22:37 47.9 °F 36.7 °F 30.04 in NNW 1.3 mph 8.1 mph 65 % 0.00 in 0.0 W/m2 CLR
22:42 47.7 °F 36.9 °F 30.04 in NNW 2.6 mph 10.4 mph 66 % 0.00 in 0.0 W/m2 CLR
22:47 47.6 °F 36.8 °F 30.04 in NNW 2.6 mph 9.0 mph 66 % 0.00 in 0.0 W/m2 CLR
22:52 47.4 °F 36.6 °F 30.04 in NNW 0.6 mph 2.3 mph 66 % 0.00 in 0.0 W/m2 CLR
22:57 47.3 °F 36.5 °F 30.04 in NNW 2.5 mph 10.4 mph 66 % 0.00 in 0.0 W/m2 CLR
23:02 47.1 °F 36.7 °F 30.04 in NNW 3.2 mph 8.1 mph 67 % 0.00 in 0.0 W/m2 CLR
23:07 47.1 °F 36.7 °F 30.05 in NNW 2.3 mph 5.8 mph 67 % 0.00 in 0.0 W/m2 CLR
23:12 47.0 °F 36.6 °F 30.05 in North 1.1 mph 4.6 mph 67 % 0.00 in 0.0 W/m2 CLR
23:17 46.9 °F 36.5 °F 30.06 in NNE 1.3 mph 6.9 mph 67 % 0.00 in 0.0 W/m2 CLR
23:22 46.8 °F 36.8 °F 30.05 in North 0.5 mph 5.0 mph 68 % 0.00 in 0.0 W/m2 CLR
23:27 46.7 °F 36.7 °F 30.06 in Calm     68 % 0.00 in 0.0 W/m2 CLR
23:29 46.6 °F 36.6 °F 30.06 in NNE 0.6 mph 2.3 mph 68 % 0.00 in 0.0 W/m2 CLR
23:34 46.4 °F 36.4 °F 30.06 in Calm     68 % 0.00 in 0.0 W/m2 CLR
23:39 46.3 °F 36.7 °F 30.06 in NNE 1.1 mph 3.5 mph 69 % 0.00 in 0.0 W/m2 CLR
23:44 46.2 °F 36.6 °F 30.06 in Calm     69 % 0.00 in 0.0 W/m2 CLR
23:49 46.1 °F 36.5 °F 30.06 in Calm   3.5 mph 69 % 0.00 in 0.0 W/m2 CLR
23:54 45.8 °F 36.6 °F 30.05 in NNE 1.8 mph 4.6 mph 70 % 0.00 in 0.0 W/m2 CLR
23:59 45.7 °F 36.5 °F 30.06 in NNE 0.9 mph   70 % 0.00 in 0.0 W/m2 CLR
Air Products Campus Weather
Compliments of Weather Underground - 3.5 mb